createdAt,value
2018-12-26T00:01:12.121Z,48.40
2018-12-26T00:03:42.423Z,47.37
2018-12-26T00:06:12.733Z,44.17
2018-12-26T00:08:43.016Z,46.90
2018-12-26T00:11:13.375Z,41.67
2018-12-26T00:13:43.526Z,43.63
2018-12-26T00:16:13.710Z,37.60
2018-12-26T00:18:44.009Z,38.60
2018-12-26T00:21:14.482Z,44.93
2018-12-26T00:23:44.704Z,46.90
2018-12-26T00:26:14.998Z,52.50
2018-12-26T00:28:45.199Z,42.57
2018-12-26T00:31:15.526Z,43.23
2018-12-26T00:33:45.734Z,45.17
2018-12-26T00:36:15.943Z,42.23
2018-12-26T00:38:46.206Z,40.30
2018-12-26T00:41:16.402Z,36.43
2018-12-26T00:43:46.683Z,32.03
2018-12-26T00:46:16.856Z,39.03
2018-12-26T00:48:47.075Z,40.93
2018-12-26T00:51:17.315Z,37.87
2018-12-26T00:53:47.572Z,34.53
2018-12-26T00:56:17.847Z,35.70
2018-12-26T00:58:48.015Z,32.00
2018-12-26T01:01:18.154Z,36.13
2018-12-26T01:03:48.485Z,33.53
2018-12-26T01:06:18.770Z,29.40
2018-12-26T01:08:49.054Z,33.90
2018-12-26T01:11:19.216Z,33.43
2018-12-26T01:13:49.460Z,30.97
2018-12-26T01:16:19.641Z,30.00
2018-12-26T01:18:49.869Z,33.77
2018-12-26T01:21:20.042Z,32.00
2018-12-26T01:23:50.178Z,29.27
2018-12-26T01:26:20.417Z,30.23
2018-12-26T01:28:50.582Z,33.00
2018-12-26T01:31:20.745Z,25.87
2018-12-26T01:33:50.921Z,26.50
2018-12-26T01:36:21.114Z,28.17
2018-12-26T01:38:51.482Z,28.73
2018-12-26T01:41:21.662Z,27.93
2018-12-26T01:43:51.829Z,27.57
2018-12-26T01:46:22.126Z,28.00
2018-12-26T01:48:52.294Z,27.87
2018-12-26T01:51:22.640Z,28.23
2018-12-26T01:53:52.865Z,31.77
2018-12-26T01:56:28.099Z,26.20
2018-12-26T01:58:56.008Z,26.90
2018-12-26T02:01:26.335Z,31.13
2018-12-26T02:03:56.522Z,34.70
2018-12-26T02:06:26.743Z,28.97
2018-12-26T02:08:57.074Z,31.97
2018-12-26T02:11:27.301Z,34.37
2018-12-26T02:13:57.487Z,37.97
2018-12-26T02:16:27.732Z,29.20
2018-12-26T02:18:57.927Z,35.13
2018-12-26T02:21:28.235Z,30.13
2018-12-26T02:23:58.455Z,31.70
2018-12-26T02:26:36.394Z,30.03
2018-12-26T02:29:01.320Z,32.70
2018-12-26T02:31:31.927Z,31.13
2018-12-26T02:34:02.092Z,32.93
2018-12-26T02:36:32.403Z,32.13
2018-12-26T02:39:04.040Z,35.73
2018-12-26T02:41:34.417Z,34.77
2018-12-26T02:44:04.578Z,34.67
2018-12-26T02:46:34.736Z,37.57
2018-12-26T02:49:04.954Z,40.83
2018-12-26T02:51:35.232Z,37.37
2018-12-26T02:54:05.594Z,36.93
2018-12-26T02:56:35.921Z,38.30
2018-12-26T02:59:06.282Z,36.90
2018-12-26T03:01:36.461Z,36.47
2018-12-26T03:04:06.670Z,35.63
2018-12-26T03:06:36.927Z,40.90
2018-12-26T03:09:08.227Z,38.13
2018-12-26T03:11:40.145Z,32.37
2018-12-26T03:14:10.479Z,34.27
2018-12-26T03:16:40.745Z,32.47
2018-12-26T03:19:11.099Z,32.33
2018-12-26T03:21:41.411Z,39.20
2018-12-26T03:24:14.512Z,30.33
2018-12-26T03:26:44.872Z,38.00
2018-12-26T03:29:15.203Z,33.50
2018-12-26T03:31:45.513Z,29.37
2018-12-26T03:34:15.819Z,30.53
2018-12-26T03:36:46.079Z,32.00
2018-12-26T03:39:16.391Z,30.47
2018-12-26T03:41:46.799Z,29.93
2018-12-26T03:44:17.183Z,34.20
2018-12-26T03:46:47.453Z,33.97
2018-12-26T03:49:18.971Z,28.97
2018-12-26T03:51:49.280Z,30.90
2018-12-26T03:54:19.576Z,25.40
2018-12-26T03:56:49.896Z,26.20
2018-12-26T03:59:20.204Z,26.17
2018-12-26T04:01:50.531Z,26.37
2018-12-26T04:04:20.946Z,31.13
2018-12-26T04:06:51.347Z,26.43
2018-12-26T04:09:21.839Z,26.73
2018-12-26T04:11:52.275Z,29.27
2018-12-26T04:14:22.570Z,28.83
2018-12-26T04:16:52.875Z,31.57
2018-12-26T04:19:25.794Z,32.00
2018-12-26T04:21:56.227Z,24.60
2018-12-26T04:24:26.469Z,25.37
2018-12-26T04:26:56.751Z,21.70
2018-12-26T04:29:26.996Z,27.07
2018-12-26T04:31:57.271Z,27.00
2018-12-26T04:34:27.531Z,31.37
2018-12-26T04:36:57.791Z,27.27
2018-12-26T04:39:28.148Z,26.13
2018-12-26T04:41:58.417Z,26.23
2018-12-26T04:44:28.727Z,28.53
2018-12-26T04:46:59.004Z,23.33
2018-12-26T04:49:29.268Z,22.53
2018-12-26T04:51:59.600Z,28.40
2018-12-26T04:54:29.859Z,26.57
2018-12-26T04:57:00.161Z,25.50
2018-12-26T04:59:30.423Z,30.03
2018-12-26T05:02:00.773Z,30.40
2018-12-26T05:04:31.055Z,30.77
2018-12-26T05:07:01.322Z,23.03
2018-12-26T05:09:31.654Z,22.93
2018-12-26T05:12:01.906Z,20.17
2018-12-26T05:14:32.207Z,26.47
2018-12-26T05:17:02.560Z,24.27
2018-12-26T05:19:32.949Z,26.73
2018-12-26T05:22:03.273Z,30.40
2018-12-26T05:24:33.520Z,27.57
2018-12-26T05:27:03.838Z,25.70
2018-12-26T05:29:34.096Z,23.73
2018-12-26T05:32:04.727Z,28.33
2018-12-26T05:34:35.111Z,25.77
2018-12-26T05:37:05.462Z,26.53
2018-12-26T05:39:35.753Z,21.43
2018-12-26T05:42:06.328Z,23.60
2018-12-26T05:44:36.618Z,22.73
2018-12-26T05:47:07.026Z,20.20
2018-12-26T05:49:37.342Z,21.53
2018-12-26T05:52:07.900Z,27.03
2018-12-26T05:54:38.251Z,23.23
2018-12-26T05:57:08.611Z,18.47
2018-12-26T05:59:38.937Z,19.03
2018-12-26T06:02:09.280Z,19.10
2018-12-26T06:04:39.627Z,25.33
2018-12-26T06:07:09.940Z,22.50
2018-12-26T06:09:40.224Z,20.87
2018-12-26T06:12:11.552Z,22.37
2018-12-26T06:14:41.971Z,26.37
2018-12-26T06:17:12.347Z,22.13
2018-12-26T06:19:42.760Z,26.70
2018-12-26T06:22:13.150Z,29.63
2018-12-26T06:24:43.425Z,21.60
2018-12-26T06:27:13.725Z,25.00
2018-12-26T06:29:44.012Z,26.60
2018-12-26T06:32:14.300Z,27.97
2018-12-26T06:34:44.592Z,33.40
2018-12-26T06:37:14.891Z,29.00
2018-12-26T06:39:45.219Z,28.10
2018-12-26T06:42:15.494Z,34.40
2018-12-26T06:44:45.868Z,28.07
2018-12-26T06:47:16.155Z,29.70
2018-12-26T06:49:46.499Z,28.43
2018-12-26T06:52:16.891Z,24.97
2018-12-26T06:54:47.248Z,30.07
2018-12-26T06:57:17.547Z,27.17
2018-12-26T06:59:47.946Z,28.50
2018-12-26T07:02:18.519Z,25.60
2018-12-26T07:04:48.810Z,29.67
2018-12-26T07:07:19.058Z,29.83
2018-12-26T07:09:49.227Z,32.07
2018-12-26T07:12:19.419Z,39.23
2018-12-26T07:14:49.611Z,35.10
2018-12-26T07:17:19.873Z,34.73
2018-12-26T07:19:50.105Z,31.30
2018-12-26T07:22:20.455Z,28.73
2018-12-26T07:24:50.622Z,33.00
2018-12-26T07:27:20.855Z,31.37
2018-12-26T07:29:51.043Z,29.67
2018-12-26T07:32:21.189Z,42.03
2018-12-26T07:34:51.414Z,28.47
2018-12-26T07:37:21.818Z,32.77
2018-12-26T07:39:52.101Z,32.03
2018-12-26T07:42:22.314Z,38.83
2018-12-26T07:44:52.560Z,26.93
2018-12-26T07:47:22.805Z,37.97
2018-12-26T07:49:53.015Z,31.03
2018-12-26T07:52:23.301Z,30.70
2018-12-26T07:54:53.529Z,35.57
2018-12-26T07:57:23.730Z,35.40
2018-12-26T07:59:53.914Z,33.00
2018-12-26T08:02:24.204Z,29.27
2018-12-26T08:04:54.465Z,26.53
2018-12-26T08:07:24.603Z,24.77
2018-12-26T08:09:54.790Z,27.23
2018-12-26T08:12:25.162Z,33.37
2018-12-26T08:14:55.349Z,26.17
2018-12-26T08:17:25.546Z,31.47
2018-12-26T08:19:55.724Z,27.57
2018-12-26T08:22:25.971Z,29.97
2018-12-26T08:24:56.117Z,32.73
2018-12-26T08:27:26.301Z,29.73
2018-12-26T08:29:56.604Z,23.07
2018-12-26T08:32:26.898Z,29.33
2018-12-26T08:34:57.174Z,22.10
2018-12-26T08:37:27.413Z,28.97
2018-12-26T08:39:57.573Z,26.30
2018-12-26T08:42:27.962Z,29.57
2018-12-26T08:44:58.305Z,28.90
2018-12-26T08:47:28.599Z,28.67
2018-12-26T08:49:58.781Z,34.07
2018-12-26T08:52:29.131Z,26.40
2018-12-26T08:54:59.499Z,31.00
2018-12-26T08:57:29.678Z,29.90
2018-12-26T08:59:59.896Z,26.10
2018-12-26T09:02:30.144Z,34.63
2018-12-26T09:05:00.641Z,33.43
2018-12-26T09:07:30.905Z,22.20
2018-12-26T09:10:01.160Z,24.67
2018-12-26T09:12:31.373Z,23.63
2018-12-26T09:15:01.621Z,17.00
2018-12-26T09:17:32.944Z,22.73
2018-12-26T09:20:03.165Z,25.43
2018-12-26T09:22:33.609Z,19.97
2018-12-26T09:25:03.869Z,21.77
2018-12-26T09:27:35.759Z,35.83
2018-12-26T09:30:06.406Z,34.63
2018-12-26T09:32:36.695Z,29.73
2018-12-26T09:35:08.215Z,26.03
2018-12-26T09:37:38.807Z,25.90
2018-12-26T09:40:09.226Z,21.17
2018-12-26T09:42:39.549Z,21.23
2018-12-26T09:45:09.969Z,25.53
2018-12-26T09:47:40.707Z,20.77
2018-12-26T09:50:10.990Z,20.87
2018-12-26T09:52:41.493Z,28.73
2018-12-26T09:55:11.754Z,29.00
2018-12-26T09:57:42.027Z,23.27
2018-12-26T10:00:12.364Z,32.13
2018-12-26T10:02:42.605Z,21.70
2018-12-26T10:05:13.056Z,20.30
2018-12-26T10:07:43.426Z,27.63
2018-12-26T10:10:13.760Z,24.90
2018-12-26T10:12:43.992Z,31.70
2018-12-26T10:15:14.234Z,31.47
2018-12-26T10:17:44.509Z,33.83
2018-12-26T10:20:14.691Z,33.13
2018-12-26T10:22:44.902Z,27.73
2018-12-26T10:25:15.090Z,30.40
2018-12-26T10:27:45.345Z,24.83
2018-12-26T10:30:15.650Z,43.87
2018-12-26T10:32:46.122Z,31.47
2018-12-26T10:35:16.366Z,37.67
2018-12-26T10:37:46.967Z,44.93
2018-12-26T10:40:17.191Z,23.97
2018-12-26T10:42:47.606Z,27.53
2018-12-26T10:45:17.820Z,31.40
2018-12-26T10:47:48.117Z,31.00
2018-12-26T10:50:18.324Z,25.23
2018-12-26T10:52:48.731Z,32.20
2018-12-26T10:55:19.037Z,29.20
2018-12-26T10:57:49.279Z,27.77
2018-12-26T11:00:19.504Z,28.70
2018-12-26T11:02:49.926Z,25.53
2018-12-26T11:05:20.202Z,26.20
2018-12-26T11:07:50.506Z,29.20
2018-12-26T11:10:20.895Z,23.70
2018-12-26T11:12:51.226Z,36.67
2018-12-26T11:15:21.583Z,21.93
2018-12-26T11:17:52.487Z,19.87
2018-12-26T11:20:22.702Z,24.47
2018-12-26T11:22:52.897Z,24.73
2018-12-26T11:25:23.361Z,20.27
2018-12-26T11:27:54.677Z,36.97
2018-12-26T11:30:25.097Z,25.00
2018-12-26T11:32:55.374Z,17.27
2018-12-26T11:35:25.618Z,18.03
2018-12-26T11:37:55.928Z,20.77
2018-12-26T11:40:26.157Z,22.00
2018-12-26T11:42:56.666Z,19.07
2018-12-26T11:45:27.013Z,17.93
2018-12-26T11:47:57.288Z,24.03
2018-12-26T11:50:27.629Z,23.80
2018-12-26T11:52:59.078Z,19.73
2018-12-26T11:55:29.407Z,21.90
2018-12-26T11:57:59.771Z,20.37
2018-12-26T12:00:30.136Z,23.40
2018-12-26T12:03:00.448Z,26.20
2018-12-26T12:05:30.769Z,24.27
2018-12-26T12:08:01.314Z,21.63
2018-12-26T12:10:31.819Z,19.70
2018-12-26T12:13:02.266Z,19.60
2018-12-26T12:15:32.459Z,19.97
2018-12-26T12:18:02.647Z,21.30
2018-12-26T12:20:32.909Z,21.87
2018-12-26T12:23:03.250Z,18.53
2018-12-26T12:25:33.539Z,25.37
2018-12-26T12:28:03.696Z,22.47
2018-12-26T12:30:33.969Z,18.47
2018-12-26T12:33:04.369Z,19.53
2018-12-26T12:35:34.707Z,22.80
2018-12-26T12:38:04.987Z,24.13
2018-12-26T12:40:36.030Z,25.90
2018-12-26T12:43:06.553Z,23.00
2018-12-26T12:45:36.822Z,13.33
2018-12-26T12:48:07.238Z,29.03
2018-12-26T12:50:37.582Z,27.17
2018-12-26T12:53:07.977Z,20.17
2018-12-26T12:55:38.414Z,20.93
2018-12-26T12:58:10.312Z,14.73
2018-12-26T13:00:40.895Z,25.37
2018-12-26T13:03:11.147Z,22.97
2018-12-26T13:05:41.430Z,26.43
2018-12-26T13:08:13.275Z,22.53
2018-12-26T13:10:43.754Z,20.33
2018-12-26T13:13:14.129Z,23.57
2018-12-26T13:15:44.430Z,20.80
2018-12-26T13:18:14.838Z,24.70
2018-12-26T13:20:46.887Z,16.93
2018-12-26T13:23:17.421Z,30.07
2018-12-26T13:25:47.621Z,30.07
2018-12-26T13:28:17.846Z,36.70
2018-12-26T13:30:48.228Z,32.50
2018-12-26T13:33:18.402Z,39.27
2018-12-26T13:35:48.680Z,32.30
2018-12-26T13:38:18.989Z,34.13
2018-12-26T13:40:49.303Z,29.70
2018-12-26T13:43:19.624Z,29.27
2018-12-26T13:45:49.961Z,18.13
2018-12-26T13:48:20.172Z,19.70
2018-12-26T13:50:50.406Z,21.17
2018-12-26T13:53:20.741Z,18.53
2018-12-26T13:55:51.042Z,19.43
2018-12-26T13:58:21.222Z,21.37
2018-12-26T14:00:51.456Z,17.63
2018-12-26T14:03:21.707Z,16.40
2018-12-26T14:05:52.077Z,12.53
2018-12-26T14:08:22.249Z,17.23
2018-12-26T14:10:52.476Z,18.13
2018-12-26T14:13:22.790Z,18.90
2018-12-26T14:15:53.140Z,21.70
2018-12-26T14:18:23.379Z,17.07
2018-12-26T14:20:53.618Z,15.87
2018-12-26T14:23:23.886Z,18.60
2018-12-26T14:25:54.115Z,16.10
2018-12-26T14:28:24.394Z,25.43
2018-12-26T14:30:54.666Z,17.60
2018-12-26T14:33:24.877Z,16.53
2018-12-26T14:35:59.733Z,20.90
2018-12-26T14:38:29.978Z,18.17
2018-12-26T14:41:01.294Z,18.67
2018-12-26T14:43:31.489Z,16.70
2018-12-26T14:46:01.755Z,23.63
2018-12-26T14:48:32.079Z,24.10
2018-12-26T14:51:02.362Z,17.90
2018-12-26T14:53:32.799Z,18.87
2018-12-26T14:56:03.023Z,23.00
2018-12-26T14:58:33.374Z,17.97
2018-12-26T15:01:03.646Z,17.80
2018-12-26T15:03:33.822Z,20.90
2018-12-26T15:06:04.005Z,17.43
2018-12-26T15:08:34.275Z,21.47
2018-12-26T15:11:04.785Z,33.67
2018-12-26T15:13:35.082Z,31.60
2018-12-26T15:16:05.417Z,23.17
2018-12-26T15:18:35.594Z,25.07
2018-12-26T15:21:05.782Z,26.57
2018-12-26T15:23:36.017Z,24.33
2018-12-26T15:26:06.594Z,24.33
2018-12-26T15:28:36.790Z,22.33
2018-12-26T15:31:06.994Z,28.80
2018-12-26T15:33:37.262Z,25.17
2018-12-26T15:36:07.543Z,19.73
2018-12-26T15:38:38.194Z,23.67
2018-12-26T15:41:08.524Z,19.73
2018-12-26T15:43:38.841Z,17.90
2018-12-26T15:46:09.195Z,15.10
2018-12-26T15:48:39.489Z,18.87
2018-12-26T15:51:09.878Z,16.23
2018-12-26T15:53:40.183Z,20.30
2018-12-26T15:56:10.456Z,19.33
2018-12-26T15:58:40.744Z,18.50
2018-12-26T16:01:11.008Z,22.70
2018-12-26T16:03:41.214Z,23.33
2018-12-26T16:06:11.459Z,25.50
2018-12-26T16:08:41.813Z,18.33
2018-12-26T16:11:12.033Z,16.23
2018-12-26T16:13:42.426Z,20.60
2018-12-26T16:16:12.566Z,17.73
2018-12-26T16:18:42.771Z,16.20
2018-12-26T16:21:12.990Z,16.37
2018-12-26T16:23:43.198Z,19.63
2018-12-26T16:26:13.453Z,16.57
2018-12-26T16:28:43.852Z,20.93
2018-12-26T16:31:14.227Z,22.27
2018-12-26T16:33:44.643Z,19.43
2018-12-26T16:36:14.833Z,23.63
2018-12-26T16:38:45.169Z,25.10
2018-12-26T16:41:15.431Z,20.30
2018-12-26T16:43:45.770Z,26.17
2018-12-26T16:46:16.053Z,24.10
2018-12-26T16:48:46.394Z,20.50
2018-12-26T16:51:16.598Z,18.30
2018-12-26T16:53:47.128Z,26.57
2018-12-26T16:56:17.769Z,18.30
2018-12-26T16:58:48.109Z,28.23
2018-12-26T17:01:18.428Z,19.07
2018-12-26T17:03:48.769Z,25.13
2018-12-26T17:06:19.166Z,24.67
2018-12-26T17:08:49.462Z,22.43
2018-12-26T17:11:19.690Z,22.60
2018-12-26T17:13:49.991Z,19.50
2018-12-26T17:16:20.208Z,25.87
2018-12-26T17:18:51.623Z,18.03
2018-12-26T17:21:21.811Z,17.47
2018-12-26T17:23:52.594Z,15.07
2018-12-26T17:26:22.788Z,22.60
2018-12-26T17:28:53.102Z,19.83
2018-12-26T17:31:23.407Z,19.23
2018-12-26T17:33:53.631Z,23.57
2018-12-26T17:36:25.810Z,19.57
2018-12-26T17:38:55.786Z,22.37
2018-12-26T17:41:26.006Z,27.53
2018-12-26T17:43:56.264Z,20.93
2018-12-26T17:46:26.521Z,20.47
2018-12-26T17:48:56.758Z,22.60
2018-12-26T17:51:27.033Z,21.70
2018-12-26T17:54:38.533Z,22.67
2018-12-26T17:57:12.141Z,17.80
2018-12-26T18:00:40.695Z,22.80
2018-12-26T18:03:11.033Z,18.50
2018-12-26T18:05:41.717Z,20.23
2018-12-26T18:08:11.936Z,19.33
2018-12-26T18:10:42.183Z,26.53
2018-12-26T18:13:12.540Z,20.90
2018-12-26T18:15:43.002Z,19.10
2018-12-26T18:18:13.268Z,15.20
2018-12-26T18:20:43.488Z,24.43
2018-12-26T18:23:14.892Z,18.17
2018-12-26T18:25:48.100Z,22.13
2018-12-26T18:28:18.366Z,27.90
2018-12-26T18:30:48.706Z,28.13
2018-12-26T18:33:18.995Z,27.17
2018-12-26T18:35:49.566Z,33.07
2018-12-26T18:38:19.862Z,27.87
2018-12-26T18:40:50.074Z,25.30
2018-12-26T18:43:20.389Z,18.97
2018-12-26T18:45:51.018Z,21.33
2018-12-26T18:48:21.228Z,24.67
2018-12-26T18:50:51.540Z,28.80
2018-12-26T18:53:21.803Z,29.10
2018-12-26T18:55:52.095Z,30.53
2018-12-26T18:58:22.428Z,33.00
2018-12-26T19:00:52.695Z,32.17
2018-12-26T19:03:22.912Z,54.60
2018-12-26T19:05:53.284Z,41.70
2018-12-26T19:08:23.647Z,19.53
2018-12-26T19:10:53.903Z,37.03
2018-12-26T19:13:24.140Z,31.13
2018-12-26T19:15:54.371Z,33.73
2018-12-26T19:18:24.706Z,37.30
2018-12-26T19:20:54.938Z,36.07
2018-12-26T19:23:25.166Z,41.07
2018-12-26T19:25:55.496Z,36.90
2018-12-26T19:28:27.354Z,29.07
2018-12-26T19:30:57.570Z,31.30
2018-12-26T19:33:29.728Z,31.43
2018-12-26T19:35:59.637Z,19.60
2018-12-26T19:38:29.909Z,28.20
2018-12-26T19:41:00.184Z,27.90
2018-12-26T19:43:30.389Z,46.47
2018-12-26T19:46:00.641Z,30.57
2018-12-26T19:48:30.906Z,22.27
2018-12-26T19:51:01.125Z,27.50
2018-12-26T19:53:31.429Z,27.77
2018-12-26T19:56:01.682Z,38.73
2018-12-26T19:58:31.982Z,32.23
2018-12-26T20:01:02.419Z,27.50
2018-12-26T20:03:32.693Z,29.93
2018-12-26T20:06:03.027Z,32.30
2018-12-26T20:08:33.438Z,37.10
2018-12-26T20:11:03.842Z,28.30
2018-12-26T20:13:34.173Z,25.20
2018-12-26T20:16:04.382Z,22.53
2018-12-26T20:18:34.690Z,24.20
2018-12-26T20:21:04.912Z,24.33
2018-12-26T20:23:36.298Z,28.33
2018-12-26T20:26:06.487Z,30.30
2018-12-26T20:28:36.878Z,31.73
2018-12-26T20:31:07.413Z,34.70
2018-12-26T20:33:37.641Z,30.13
2018-12-26T20:36:07.863Z,23.87
2018-12-26T20:38:38.079Z,20.73
2018-12-26T20:41:08.430Z,24.57
2018-12-26T20:43:38.734Z,19.17
2018-12-26T20:46:08.991Z,18.70
2018-12-26T20:48:39.286Z,19.13
2018-12-26T20:51:09.510Z,26.37
2018-12-26T20:53:41.510Z,20.33
2018-12-26T20:56:11.898Z,21.40
2018-12-26T20:58:42.184Z,21.17
2018-12-26T21:01:12.430Z,18.27
2018-12-26T21:03:42.693Z,18.70
2018-12-26T21:06:12.942Z,17.63
2018-12-26T21:08:43.201Z,18.60
2018-12-26T21:11:13.397Z,28.77
2018-12-26T21:13:43.878Z,25.50
2018-12-26T21:16:14.214Z,22.27
2018-12-26T21:18:44.421Z,25.57
2018-12-26T21:21:14.918Z,35.70
2018-12-26T21:23:45.106Z,33.93
2018-12-26T21:26:15.407Z,32.00
2018-12-26T21:28:45.759Z,29.97
2018-12-26T21:31:16.139Z,28.43
2018-12-26T21:33:46.599Z,28.43
2018-12-26T21:36:16.804Z,26.97
2018-12-26T21:38:47.185Z,25.13
2018-12-26T21:41:17.511Z,28.73
2018-12-26T21:43:47.844Z,23.67
2018-12-26T21:46:18.248Z,28.60
2018-12-26T21:48:48.546Z,23.13
2018-12-26T21:51:18.779Z,31.63
2018-12-26T21:53:49.058Z,31.03
2018-12-26T21:56:19.273Z,28.17
2018-12-26T21:58:49.505Z,20.93
2018-12-26T22:01:19.768Z,27.00
2018-12-26T22:03:51.061Z,27.23
2018-12-26T22:06:21.313Z,29.60
2018-12-26T22:08:51.730Z,29.90
2018-12-26T22:11:21.979Z,28.83
2018-12-26T22:13:52.383Z,31.00
2018-12-26T22:16:22.739Z,31.37
2018-12-26T22:18:53.014Z,28.03
2018-12-26T22:21:24.421Z,29.30
2018-12-26T22:23:54.645Z,26.87
2018-12-26T22:26:24.877Z,28.63
2018-12-26T22:28:55.157Z,28.30
2018-12-26T22:31:25.450Z,29.07
2018-12-26T22:33:55.711Z,32.20
2018-12-26T22:36:26.025Z,23.93
2018-12-26T22:38:56.245Z,31.83
2018-12-26T22:41:26.523Z,29.40
2018-12-26T22:43:56.818Z,21.63
2018-12-26T22:46:27.037Z,28.30
2018-12-26T22:48:57.246Z,22.87
2018-12-26T22:51:27.545Z,26.20
2018-12-26T22:53:57.714Z,26.47
2018-12-26T22:56:28.015Z,25.33
2018-12-26T22:58:58.319Z,24.37
2018-12-26T23:01:28.530Z,24.70
2018-12-26T23:03:58.807Z,23.77
2018-12-26T23:06:29.075Z,21.63
2018-12-26T23:08:59.373Z,26.20
2018-12-26T23:11:29.538Z,21.53
2018-12-26T23:13:59.906Z,25.60
2018-12-26T23:16:30.097Z,30.67
2018-12-26T23:19:00.322Z,26.47
2018-12-26T23:21:30.571Z,20.03
2018-12-26T23:24:00.774Z,23.20
2018-12-26T23:26:31.128Z,30.30
2018-12-26T23:29:01.362Z,28.43
2018-12-26T23:31:31.525Z,25.43
2018-12-26T23:34:01.778Z,28.13
2018-12-26T23:36:32.005Z,26.00
2018-12-26T23:39:02.343Z,27.53
2018-12-26T23:41:34.449Z,27.67
2018-12-26T23:44:04.834Z,24.43
2018-12-26T23:46:35.062Z,30.57
2018-12-26T23:49:05.246Z,21.43
2018-12-26T23:51:35.420Z,29.70
2018-12-26T23:54:05.657Z,25.63
2018-12-26T23:56:36.075Z,35.10
2018-12-26T23:59:06.418Z,28.70
